createdAt,value
2019-05-11T00:03:09.277Z,6.73
2019-05-11T00:08:15.259Z,7.07
2019-05-11T00:13:21.016Z,7.50
2019-05-11T00:18:26.876Z,8.10
2019-05-11T00:23:32.641Z,7.87
2019-05-11T00:28:38.560Z,8.60
2019-05-11T00:33:44.271Z,8.67
2019-05-11T00:38:51.023Z,8.87
2019-05-11T00:43:56.927Z,8.90
2019-05-11T00:49:02.846Z,10.10
2019-05-11T00:54:08.802Z,9.03
2019-05-11T00:59:21.646Z,8.10
2019-05-11T01:04:22.224Z,8.60
2019-05-11T01:09:27.961Z,9.30
2019-05-11T01:14:33.884Z,8.60
2019-05-11T01:19:39.806Z,8.90
2019-05-11T01:24:45.736Z,9.10
2019-05-11T01:29:51.655Z,8.73
2019-05-11T01:34:57.545Z,8.23
2019-05-11T01:40:03.690Z,8.23
2019-05-11T01:45:09.905Z,8.20
2019-05-11T01:50:15.791Z,8.27
2019-05-11T01:55:20.927Z,8.80
2019-05-11T02:00:26.881Z,8.10
2019-05-11T02:05:32.735Z,8.20
2019-05-11T02:10:38.583Z,7.60
2019-05-11T02:15:44.370Z,8.27
2019-05-11T02:20:50.693Z,8.60
2019-05-11T02:25:56.550Z,7.23
2019-05-11T02:31:03.745Z,7.67
2019-05-11T02:36:09.628Z,7.47
2019-05-11T02:41:33.301Z,7.50
2019-05-11T02:46:22.891Z,7.67
2019-05-11T02:51:30.682Z,6.33
2019-05-11T02:56:36.487Z,7.57
2019-05-11T03:01:42.352Z,7.17
2019-05-11T03:06:48.193Z,7.23
2019-05-11T03:11:56.279Z,7.47
2019-05-11T03:17:21.252Z,7.50
2019-05-11T03:22:26.981Z,7.03
2019-05-11T03:27:32.794Z,6.83
2019-05-11T03:32:38.683Z,6.67
2019-05-11T03:37:44.448Z,6.50
2019-05-11T03:42:51.015Z,5.93
2019-05-11T03:47:56.783Z,6.33
2019-05-11T03:53:02.720Z,6.73
2019-05-11T03:58:08.528Z,5.37
2019-05-11T04:03:14.706Z,5.90
2019-05-11T04:08:20.579Z,6.07
2019-05-11T04:13:26.449Z,5.17
2019-05-11T04:18:32.173Z,5.43
2019-05-11T04:23:37.883Z,6.50
2019-05-11T04:28:43.769Z,4.80
2019-05-11T04:33:50.504Z,4.67
2019-05-11T04:38:56.204Z,6.53
2019-05-11T04:44:02.044Z,5.30
2019-05-11T04:49:07.962Z,5.77
2019-05-11T04:54:13.976Z,5.57
2019-05-11T04:59:19.702Z,5.80
2019-05-11T05:04:25.580Z,5.93
2019-05-11T05:09:36.077Z,6.17
2019-05-11T05:14:38.951Z,6.00
2019-05-11T05:19:45.221Z,7.73
2019-05-11T05:24:51.055Z,7.57
2019-05-11T05:29:58.248Z,6.70
2019-05-11T05:35:04.528Z,6.63
2019-05-11T05:40:10.560Z,6.67
2019-05-11T05:45:16.377Z,6.47
2019-05-11T05:50:22.309Z,6.53
2019-05-11T05:55:28.124Z,6.13
2019-05-11T06:00:35.217Z,6.43
2019-05-11T06:05:40.976Z,7.17
2019-05-11T06:10:46.815Z,7.50
2019-05-11T06:15:52.579Z,6.00
2019-05-11T06:20:58.554Z,7.03
2019-05-11T06:26:04.539Z,7.53
2019-05-11T06:31:10.609Z,7.27
2019-05-11T06:36:16.515Z,8.00
2019-05-11T06:41:22.453Z,7.80
2019-05-11T06:46:28.528Z,6.90
2019-05-11T06:51:34.294Z,6.30
2019-05-11T06:56:40.161Z,5.23
2019-05-11T07:01:45.944Z,5.40
2019-05-11T07:06:51.516Z,5.07
2019-05-11T07:11:57.393Z,4.77
2019-05-11T07:17:03.231Z,4.60
2019-05-11T07:22:09.240Z,3.77
2019-05-11T07:27:15.030Z,4.63
2019-05-11T07:32:25.758Z,4.20
2019-05-11T07:37:28.472Z,5.50
2019-05-11T07:42:34.281Z,3.03
2019-05-11T07:47:40.504Z,4.40
2019-05-11T07:52:48.304Z,4.70
2019-05-11T07:57:53.999Z,3.97
2019-05-11T08:02:59.869Z,3.70
2019-05-11T08:08:05.846Z,2.93
2019-05-11T08:13:11.715Z,3.97
2019-05-11T08:18:18.923Z,3.87
2019-05-11T08:23:25.098Z,3.27
2019-05-11T08:28:30.869Z,3.63
2019-05-11T08:33:38.708Z,3.23
2019-05-11T08:38:45.481Z,3.50
2019-05-11T08:43:51.354Z,3.60
2019-05-11T08:48:59.508Z,3.67
2019-05-11T08:54:04.975Z,3.50
2019-05-11T08:59:11.221Z,2.80
2019-05-11T09:04:18.254Z,2.90
2019-05-11T09:09:24.385Z,2.87
2019-05-11T09:14:30.567Z,3.10
2019-05-11T09:19:38.628Z,2.90
2019-05-11T09:24:43.858Z,3.37
2019-05-11T09:29:49.740Z,2.97
2019-05-11T09:34:57.798Z,3.00
2019-05-11T09:40:03.406Z,3.30
2019-05-11T09:45:10.395Z,3.27
2019-05-11T09:50:17.853Z,3.17
2019-05-11T09:55:23.992Z,3.20
2019-05-11T10:00:31.504Z,2.97
2019-05-11T10:05:38.310Z,3.03
2019-05-11T10:10:45.058Z,2.97
2019-05-11T10:16:03.434Z,3.40
2019-05-11T10:20:58.777Z,3.20
2019-05-11T10:26:04.686Z,3.20
2019-05-11T10:31:10.515Z,3.60
2019-05-11T10:36:18.749Z,3.37
2019-05-11T10:41:23.994Z,2.73
2019-05-11T10:46:29.903Z,4.47
2019-05-11T10:51:38.091Z,3.07
2019-05-11T10:56:43.347Z,4.33
2019-05-11T11:01:49.259Z,3.37
2019-05-11T11:06:58.951Z,4.20
2019-05-11T11:12:04.994Z,3.67
2019-05-11T11:17:11.026Z,3.07
2019-05-11T11:22:36.233Z,3.10
2019-05-11T11:27:24.460Z,3.07
2019-05-11T11:32:30.095Z,2.93
2019-05-11T11:37:35.890Z,3.03
2019-05-11T11:42:43.371Z,3.03
2019-05-11T11:47:50.103Z,3.13
2019-05-11T11:52:57.722Z,3.20
2019-05-11T11:58:03.338Z,2.90
2019-05-11T12:03:09.269Z,3.27
2019-05-11T12:08:15.583Z,3.00
2019-05-11T12:13:21.363Z,4.00
2019-05-11T12:18:28.701Z,3.47
2019-05-11T12:23:34.740Z,3.10
2019-05-11T12:28:40.612Z,3.37
2019-05-11T12:33:48.287Z,3.03
2019-05-11T12:38:53.994Z,3.97
2019-05-11T12:43:59.863Z,3.03
2019-05-11T12:49:07.892Z,2.67
2019-05-11T12:54:13.136Z,2.90
2019-05-11T12:59:19.008Z,2.50
2019-05-11T13:04:24.880Z,3.13
2019-05-11T13:09:30.773Z,2.77
2019-05-11T13:14:38.191Z,2.97
2019-05-11T13:19:44.151Z,2.60
2019-05-11T13:24:49.905Z,2.90
2019-05-11T13:29:55.876Z,2.30
2019-05-11T13:35:01.759Z,2.37
2019-05-11T13:40:09.477Z,3.20
2019-05-11T13:45:17.760Z,1.83
2019-05-11T13:50:23.781Z,2.40
2019-05-11T13:55:29.837Z,2.23
2019-05-11T14:00:37.887Z,2.33
2019-05-11T14:05:43.395Z,2.20
2019-05-11T14:10:49.192Z,2.27
2019-05-11T14:15:54.968Z,1.97
2019-05-11T14:21:00.833Z,2.73
2019-05-11T14:26:08.609Z,1.80
2019-05-11T14:31:14.527Z,1.80
2019-05-11T14:36:20.365Z,1.93
2019-05-11T14:41:28.394Z,2.57
2019-05-11T14:46:33.548Z,2.20
2019-05-11T14:51:39.448Z,2.20
2019-05-11T14:56:45.214Z,2.30
2019-05-11T15:01:51.796Z,2.17
2019-05-11T15:06:57.980Z,2.40
2019-05-11T15:12:03.991Z,2.67
2019-05-11T15:17:09.926Z,2.80
2019-05-11T15:22:18.154Z,2.07
2019-05-11T15:27:24.020Z,2.77
2019-05-11T15:32:29.803Z,2.20
2019-05-11T15:37:35.615Z,2.70
2019-05-11T15:42:41.428Z,2.07
2019-05-11T15:47:48.700Z,2.33
2019-05-11T15:52:54.924Z,2.30
2019-05-11T15:58:00.860Z,2.20
2019-05-11T16:03:08.193Z,2.13
2019-05-11T16:08:14.318Z,3.17
2019-05-11T16:13:20.045Z,1.97
2019-05-11T16:18:25.876Z,2.83
2019-05-11T16:23:32.603Z,2.27
2019-05-11T16:28:38.564Z,3.20
2019-05-11T16:33:44.562Z,1.97
2019-05-11T16:38:50.527Z,3.40
2019-05-11T16:43:58.563Z,2.30
2019-05-11T16:49:04.214Z,2.40
2019-05-11T16:54:10.093Z,3.13
2019-05-11T16:59:18.016Z,2.77
2019-05-11T17:04:26.503Z,1.97
2019-05-11T17:09:30.872Z,2.33
2019-05-11T17:14:42.284Z,2.10
2019-05-11T17:19:49.108Z,2.70
2019-05-11T17:24:55.375Z,2.97
2019-05-11T17:30:04.474Z,3.03
2019-05-11T17:35:10.478Z,2.40
2019-05-11T17:40:20.519Z,1.97
2019-05-11T17:45:24.023Z,2.40
2019-05-11T17:50:29.925Z,2.10
2019-05-11T17:55:38.281Z,3.53
2019-05-11T18:00:43.409Z,2.70
2019-05-11T18:05:49.825Z,2.40
2019-05-11T18:10:55.763Z,1.80
2019-05-11T18:16:01.550Z,1.73
2019-05-11T18:21:08.519Z,1.60
2019-05-11T18:26:14.548Z,1.60
2019-05-11T18:31:20.351Z,1.50
2019-05-11T18:36:26.142Z,1.97
2019-05-11T18:41:32.577Z,1.43
2019-05-11T18:46:39.774Z,1.70
2019-05-11T18:51:48.140Z,2.07
2019-05-11T18:56:53.451Z,2.40
2019-05-11T19:01:59.319Z,3.07
2019-05-11T19:07:16.010Z,2.33
2019-05-11T19:12:12.768Z,2.70
2019-05-11T19:17:18.694Z,2.33
2019-05-11T19:22:24.490Z,3.40
2019-05-11T19:27:31.442Z,3.30
2019-05-11T19:32:38.289Z,3.20
2019-05-11T19:37:44.586Z,2.47
2019-05-11T19:42:59.065Z,2.30
2019-05-11T19:48:05.343Z,2.40
2019-05-11T19:53:11.162Z,2.37
2019-05-11T19:58:19.237Z,3.67
2019-05-11T20:03:25.411Z,2.87
2019-05-11T20:08:31.282Z,2.73
2019-05-11T20:13:38.839Z,2.83
2019-05-11T20:18:44.773Z,2.87
2019-05-11T20:23:55.201Z,3.57
2019-05-11T20:29:03.262Z,3.00
2019-05-11T20:34:09.034Z,2.00
2019-05-11T20:39:15.025Z,2.43
2019-05-11T20:44:20.985Z,3.47
2019-05-11T20:49:28.251Z,4.20
2019-05-11T20:54:34.375Z,4.03
2019-05-11T20:59:40.356Z,14.73
2019-05-11T21:04:49.008Z,8.67
2019-05-11T21:09:54.025Z,5.23
2019-05-11T21:15:00.606Z,3.97
2019-05-11T21:20:08.122Z,3.50
2019-05-11T21:25:14.517Z,3.63
2019-05-11T21:30:20.537Z,4.13
2019-05-11T21:35:28.266Z,5.60
2019-05-11T21:40:34.223Z,5.77
2019-05-11T21:45:40.873Z,7.70
2019-05-11T21:50:46.732Z,8.40
2019-05-11T21:55:52.599Z,5.37
2019-05-11T22:01:00.117Z,5.50
2019-05-11T22:06:08.568Z,4.70
2019-05-11T22:11:14.506Z,4.90
2019-05-11T22:16:20.425Z,4.97
2019-05-11T22:21:28.037Z,5.10
2019-05-11T22:26:33.757Z,4.80
2019-05-11T22:31:42.147Z,4.33
2019-05-11T22:36:47.960Z,4.60
2019-05-11T22:41:53.731Z,4.60
2019-05-11T22:47:00.935Z,4.70
2019-05-11T22:52:08.584Z,4.23
2019-05-11T22:57:14.197Z,3.67
2019-05-11T23:02:20.021Z,3.50
2019-05-11T23:07:25.869Z,3.93
2019-05-11T23:12:32.134Z,3.40
2019-05-11T23:17:39.861Z,4.30
2019-05-11T23:22:56.826Z,4.40
2019-05-11T23:27:55.980Z,3.97
2019-05-11T23:33:03.273Z,4.03
2019-05-11T23:38:09.274Z,4.60
2019-05-11T23:43:15.037Z,3.50
2019-05-11T23:48:20.894Z,4.43
2019-05-11T23:53:28.211Z,3.23
2019-05-11T23:58:34.308Z,3.53
